Аэропорт: Платов. Ростов-на-Дону

ICAO: URRP

METAR:
2021-10-23 02:30:00
URRP 230230Z 25004MPS 0300 0200NE R23/0650N FG VV000 12/12 Q1017 R23/CLRD70 TEMPO 0050 FG OVC001 RMK QBB020 OBST OBSC QFE755/1006
METAR:
2021-10-23 00:28:00
TAF AMD URRP 230028Z 2300/2324 24005G10MPS 1500 BR BKN003 TEMPO 2300/2306 0300 FG BKN001 BECMG 2305/2307 9999 NSW SCT016 TEMPO 2307/2324 27006G13MPS